sensor_id;sensor_type;location;lat;lon;timestamp;P1;durP1;ratioP1;P2;durP2;ratioP2
24008;SDS011;12217;50.792;4.372;2022-07-10T00:00:27;5.32;;;2.28;;
24008;SDS011;12217;50.792;4.372;2022-07-10T00:02:53;3.63;;;2.05;;
24008;SDS011;12217;50.792;4.372;2022-07-10T00:05:21;7.43;;;2.28;;
24008;SDS011;12217;50.792;4.372;2022-07-10T00:07:48;5.57;;;2.03;;
24008;SDS011;12217;50.792;4.372;2022-07-10T00:10:14;6.28;;;2.17;;
24008;SDS011;12217;50.792;4.372;2022-07-10T00:12:40;6.97;;;2.40;;
24008;SDS011;12217;50.792;4.372;2022-07-10T00:15:06;8.13;;;2.70;;
24008;SDS011;12217;50.792;4.372;2022-07-10T00:17:32;5.38;;;1.98;;
24008;SDS011;12217;50.792;4.372;2022-07-10T00:19:58;6.70;;;2.08;;
24008;SDS011;12217;50.792;4.372;2022-07-10T00:22:25;7.78;;;2.30;;
24008;SDS011;12217;50.792;4.372;2022-07-10T00:24:51;6.50;;;2.22;;
24008;SDS011;12217;50.792;4.372;2022-07-10T00:27:16;4.18;;;2.40;;
24008;SDS011;12217;50.792;4.372;2022-07-10T00:29:42;5.15;;;2.50;;
24008;SDS011;12217;50.792;4.372;2022-07-10T00:32:08;7.00;;;2.30;;
24008;SDS011;12217;50.792;4.372;2022-07-10T00:34:34;6.90;;;2.28;;
24008;SDS011;12217;50.792;4.372;2022-07-10T00:37:00;6.22;;;2.20;;
24008;SDS011;12217;50.792;4.372;2022-07-10T00:39:26;4.78;;;2.17;;
24008;SDS011;12217;50.792;4.372;2022-07-10T00:41:52;4.43;;;2.22;;
24008;SDS011;12217;50.792;4.372;2022-07-10T00:44:18;5.60;;;2.47;;
24008;SDS011;12217;50.792;4.372;2022-07-10T00:46:44;5.97;;;2.15;;
24008;SDS011;12217;50.792;4.372;2022-07-10T00:49:09;8.50;;;2.85;;
24008;SDS011;12217;50.792;4.372;2022-07-10T00:51:35;4.78;;;2.17;;
24008;SDS011;12217;50.792;4.372;2022-07-10T00:54:02;4.50;;;2.35;;
24008;SDS011;12217;50.792;4.372;2022-07-10T00:56:29;3.60;;;2.00;;
24008;SDS011;12217;50.792;4.372;2022-07-10T00:58:55;5.43;;;2.30;;
24008;SDS011;12217;50.792;4.372;2022-07-10T01:01:21;5.13;;;2.08;;
24008;SDS011;12217;50.792;4.372;2022-07-10T01:03:50;7.00;;;2.50;;
24008;SDS011;12217;50.792;4.372;2022-07-10T01:06:16;4.20;;;2.28;;
24008;SDS011;12217;50.792;4.372;2022-07-10T01:08:42;6.60;;;2.45;;
24008;SDS011;12217;50.792;4.372;2022-07-10T01:11:09;4.70;;;2.40;;
24008;SDS011;12217;50.792;4.372;2022-07-10T01:13:35;7.13;;;2.60;;
24008;SDS011;12217;50.792;4.372;2022-07-10T01:16:01;3.63;;;2.10;;
24008;SDS011;12217;50.792;4.372;2022-07-10T01:18:27;4.22;;;2.20;;
24008;SDS011;12217;50.792;4.372;2022-07-10T01:20:53;5.35;;;1.95;;
24008;SDS011;12217;50.792;4.372;2022-07-10T01:23:20;8.35;;;2.53;;
24008;SDS011;12217;50.792;4.372;2022-07-10T01:25:47;3.97;;;1.85;;
24008;SDS011;12217;50.792;4.372;2022-07-10T01:28:13;3.72;;;1.70;;
24008;SDS011;12217;50.792;4.372;2022-07-10T01:30:38;4.70;;;2.20;;
24008;SDS011;12217;50.792;4.372;2022-07-10T01:33:04;4.43;;;2.25;;
24008;SDS011;12217;50.792;4.372;2022-07-10T01:35:29;7.57;;;2.47;;
24008;SDS011;12217;50.792;4.372;2022-07-10T01:37:55;5.53;;;2.22;;
24008;SDS011;12217;50.792;4.372;2022-07-10T01:40:21;4.65;;;2.05;;
24008;SDS011;12217;50.792;4.372;2022-07-10T01:42:46;5.80;;;2.28;;
24008;SDS011;12217;50.792;4.372;2022-07-10T01:45:12;8.40;;;2.15;;
24008;SDS011;12217;50.792;4.372;2022-07-10T01:47:38;5.13;;;2.00;;
24008;SDS011;12217;50.792;4.372;2022-07-10T01:50:04;4.82;;;1.85;;
24008;SDS011;12217;50.792;4.372;2022-07-10T01:52:30;5.95;;;2.50;;
24008;SDS011;12217;50.792;4.372;2022-07-10T01:54:55;5.20;;;1.80;;
24008;SDS011;12217;50.792;4.372;2022-07-10T01:57:21;6.47;;;2.13;;
24008;SDS011;12217;50.792;4.372;2022-07-10T01:59:47;3.42;;;1.83;;
24008;SDS011;12217;50.792;4.372;2022-07-10T02:02:12;6.32;;;2.10;;
24008;SDS011;12217;50.792;4.372;2022-07-10T02:04:38;3.70;;;2.00;;
24008;SDS011;12217;50.792;4.372;2022-07-10T02:07:27;4.63;;;1.85;;
24008;SDS011;12217;50.792;4.372;2022-07-10T02:09:52;6.75;;;1.88;;
24008;SDS011;12217;50.792;4.372;2022-07-10T02:12:18;5.68;;;2.05;;
24008;SDS011;12217;50.792;4.372;2022-07-10T02:14:43;5.60;;;1.70;;
24008;SDS011;12217;50.792;4.372;2022-07-10T02:17:09;6.53;;;2.00;;
24008;SDS011;12217;50.792;4.372;2022-07-10T02:19:36;4.93;;;2.15;;
24008;SDS011;12217;50.792;4.372;2022-07-10T02:22:02;6.65;;;2.33;;
24008;SDS011;12217;50.792;4.372;2022-07-10T02:24:28;7.78;;;2.33;;
24008;SDS011;12217;50.792;4.372;2022-07-10T02:26:53;3.85;;;2.10;;
24008;SDS011;12217;50.792;4.372;2022-07-10T02:29:20;6.15;;;1.88;;
24008;SDS011;12217;50.792;4.372;2022-07-10T02:31:48;5.50;;;1.73;;
24008;SDS011;12217;50.792;4.372;2022-07-10T02:34:14;7.00;;;2.10;;
24008;SDS011;12217;50.792;4.372;2022-07-10T02:36:40;5.60;;;2.20;;
24008;SDS011;12217;50.792;4.372;2022-07-10T02:39:06;6.65;;;1.90;;
24008;SDS011;12217;50.792;4.372;2022-07-10T02:41:33;3.92;;;2.08;;
24008;SDS011;12217;50.792;4.372;2022-07-10T02:44:00;4.57;;;1.83;;
24008;SDS011;12217;50.792;4.372;2022-07-10T02:46:26;3.25;;;2.28;;
24008;SDS011;12217;50.792;4.372;2022-07-10T02:48:52;3.72;;;2.10;;
24008;SDS011;12217;50.792;4.372;2022-07-10T02:51:18;6.03;;;2.17;;
24008;SDS011;12217;50.792;4.372;2022-07-10T02:53:43;3.53;;;1.90;;
24008;SDS011;12217;50.792;4.372;2022-07-10T02:56:09;5.85;;;2.08;;
24008;SDS011;12217;50.792;4.372;2022-07-10T02:58:34;3.40;;;2.00;;
24008;SDS011;12217;50.792;4.372;2022-07-10T03:01:02;5.72;;;2.55;;
24008;SDS011;12217;50.792;4.372;2022-07-10T03:03:28;5.07;;;2.28;;
24008;SDS011;12217;50.792;4.372;2022-07-10T03:05:53;3.35;;;1.90;;
24008;SDS011;12217;50.792;4.372;2022-07-10T03:08:19;4.90;;;2.00;;
24008;SDS011;12217;50.792;4.372;2022-07-10T03:10:45;4.35;;;2.13;;
24008;SDS011;12217;50.792;4.372;2022-07-10T03:13:10;6.05;;;2.22;;
24008;SDS011;12217;50.792;4.372;2022-07-10T03:15:36;6.20;;;1.98;;
24008;SDS011;12217;50.792;4.372;2022-07-10T03:18:01;4.82;;;2.20;;
24008;SDS011;12217;50.792;4.372;2022-07-10T03:20:27;3.97;;;1.92;;
24008;SDS011;12217;50.792;4.372;2022-07-10T03:22:53;5.47;;;1.83;;
24008;SDS011;12217;50.792;4.372;2022-07-10T03:25:18;4.97;;;1.90;;
24008;SDS011;12217;50.792;4.372;2022-07-10T03:27:44;5.45;;;2.10;;
24008;SDS011;12217;50.792;4.372;2022-07-10T03:30:10;4.03;;;2.05;;
24008;SDS011;12217;50.792;4.372;2022-07-10T03:32:36;3.70;;;2.00;;
24008;SDS011;12217;50.792;4.372;2022-07-10T03:35:02;2.95;;;2.00;;
24008;SDS011;12217;50.792;4.372;2022-07-10T03:37:27;5.05;;;1.75;;
24008;SDS011;12217;50.792;4.372;2022-07-10T03:39:53;3.53;;;2.30;;
24008;SDS011;12217;50.792;4.372;2022-07-10T03:42:19;4.97;;;2.22;;
24008;SDS011;12217;50.792;4.372;2022-07-10T03:44:44;3.58;;;1.95;;
24008;SDS011;12217;50.792;4.372;2022-07-10T03:47:10;5.78;;;2.38;;
24008;SDS011;12217;50.792;4.372;2022-07-10T03:49:36;5.25;;;2.30;;
24008;SDS011;12217;50.792;4.372;2022-07-10T03:52:04;4.20;;;2.25;;
24008;SDS011;12217;50.792;4.372;2022-07-10T03:54:30;3.78;;;2.08;;
24008;SDS011;12217;50.792;4.372;2022-07-10T03:56:56;4.68;;;2.10;;
24008;SDS011;12217;50.792;4.372;2022-07-10T03:59:41;2.45;;;2.00;;
24008;SDS011;12217;50.792;4.372;2022-07-10T04:02:07;5.63;;;2.22;;
24008;SDS011;12217;50.792;4.372;2022-07-10T04:04:32;6.80;;;2.70;;
24008;SDS011;12217;50.792;4.372;2022-07-10T04:06:58;6.75;;;2.72;;
24008;SDS011;12217;50.792;4.372;2022-07-10T04:09:24;5.53;;;2.63;;
24008;SDS011;12217;50.792;4.372;2022-07-10T04:11:49;7.15;;;2.70;;
24008;SDS011;12217;50.792;4.372;2022-07-10T04:14:15;4.55;;;2.42;;
24008;SDS011;12217;50.792;4.372;2022-07-10T04:16:41;5.18;;;2.45;;
24008;SDS011;12217;50.792;4.372;2022-07-10T04:19:06;8.57;;;2.28;;
24008;SDS011;12217;50.792;4.372;2022-07-10T04:21:32;4.82;;;2.40;;
24008;SDS011;12217;50.792;4.372;2022-07-10T04:23:58;5.63;;;2.40;;
24008;SDS011;12217;50.792;4.372;2022-07-10T04:26:23;7.20;;;2.60;;
24008;SDS011;12217;50.792;4.372;2022-07-10T04:28:49;5.53;;;2.55;;
24008;SDS011;12217;50.792;4.372;2022-07-10T04:31:14;6.70;;;2.70;;
24008;SDS011;12217;50.792;4.372;2022-07-10T04:33:40;3.28;;;2.15;;
24008;SDS011;12217;50.792;4.372;2022-07-10T04:36:06;4.53;;;2.40;;
24008;SDS011;12217;50.792;4.372;2022-07-10T04:38:31;4.68;;;2.55;;
24008;SDS011;12217;50.792;4.372;2022-07-10T04:40:57;6.00;;;2.60;;
24008;SDS011;12217;50.792;4.372;2022-07-10T04:43:23;5.25;;;2.70;;
24008;SDS011;12217;50.792;4.372;2022-07-10T04:45:48;5.60;;;2.70;;
24008;SDS011;12217;50.792;4.372;2022-07-10T04:48:14;6.53;;;2.80;;
24008;SDS011;12217;50.792;4.372;2022-07-10T04:50:40;5.57;;;3.17;;
24008;SDS011;12217;50.792;4.372;2022-07-10T04:53:05;5.95;;;3.38;;
24008;SDS011;12217;50.792;4.372;2022-07-10T04:55:31;7.38;;;3.40;;
24008;SDS011;12217;50.792;4.372;2022-07-10T04:57:57;8.13;;;3.70;;
24008;SDS011;12217;50.792;4.372;2022-07-10T05:00:23;6.78;;;3.20;;
24008;SDS011;12217;50.792;4.372;2022-07-10T05:02:48;6.22;;;3.50;;
24008;SDS011;12217;50.792;4.372;2022-07-10T05:05:14;7.10;;;3.80;;
24008;SDS011;12217;50.792;4.372;2022-07-10T05:07:40;5.82;;;3.40;;
24008;SDS011;12217;50.792;4.372;2022-07-10T05:10:06;7.63;;;3.63;;
24008;SDS011;12217;50.792;4.372;2022-07-10T05:12:31;7.35;;;3.97;;
24008;SDS011;12217;50.792;4.372;2022-07-10T05:14:57;5.38;;;3.47;;
24008;SDS011;12217;50.792;4.372;2022-07-10T05:17:24;6.70;;;3.75;;
24008;SDS011;12217;50.792;4.372;2022-07-10T05:19:51;10.05;;;3.88;;
24008;SDS011;12217;50.792;4.372;2022-07-10T05:22:18;7.50;;;3.53;;
24008;SDS011;12217;50.792;4.372;2022-07-10T05:24:44;7.38;;;3.47;;
24008;SDS011;12217;50.792;4.372;2022-07-10T05:27:09;5.07;;;3.75;;
24008;SDS011;12217;50.792;4.372;2022-07-10T05:29:35;6.15;;;3.60;;
24008;SDS011;12217;50.792;4.372;2022-07-10T05:32:01;5.35;;;3.65;;
24008;SDS011;12217;50.792;4.372;2022-07-10T05:34:26;5.45;;;3.72;;
24008;SDS011;12217;50.792;4.372;2022-07-10T05:36:52;5.47;;;3.25;;
24008;SDS011;12217;50.792;4.372;2022-07-10T05:39:17;6.03;;;3.42;;
24008;SDS011;12217;50.792;4.372;2022-07-10T05:41:43;8.70;;;3.47;;
24008;SDS011;12217;50.792;4.372;2022-07-10T05:44:09;5.18;;;3.13;;
24008;SDS011;12217;50.792;4.372;2022-07-10T05:46:34;8.32;;;3.78;;
24008;SDS011;12217;50.792;4.372;2022-07-10T05:49:00;5.60;;;2.97;;
24008;SDS011;12217;50.792;4.372;2022-07-10T05:51:26;5.88;;;3.17;;
24008;SDS011;12217;50.792;4.372;2022-07-10T05:53:51;9.02;;;4.05;;
24008;SDS011;12217;50.792;4.372;2022-07-10T05:56:17;5.70;;;3.10;;
24008;SDS011;12217;50.792;4.372;2022-07-10T05:58:43;7.53;;;3.72;;
24008;SDS011;12217;50.792;4.372;2022-07-10T06:01:09;5.47;;;3.10;;
24008;SDS011;12217;50.792;4.372;2022-07-10T06:03:35;6.63;;;3.58;;
24008;SDS011;12217;50.792;4.372;2022-07-10T06:06:00;10.23;;;3.65;;
24008;SDS011;12217;50.792;4.372;2022-07-10T06:08:26;8.40;;;3.65;;
24008;SDS011;12217;50.792;4.372;2022-07-10T06:10:51;7.32;;;3.70;;
24008;SDS011;12217;50.792;4.372;2022-07-10T06:13:17;8.10;;;3.30;;
24008;SDS011;12217;50.792;4.372;2022-07-10T06:15:43;4.63;;;2.95;;
24008;SDS011;12217;50.792;4.372;2022-07-10T06:18:09;8.77;;;2.45;;
24008;SDS011;12217;50.792;4.372;2022-07-10T06:20:34;7.22;;;2.35;;
24008;SDS011;12217;50.792;4.372;2022-07-10T06:23:00;7.03;;;2.30;;
24008;SDS011;12217;50.792;4.372;2022-07-10T06:25:26;7.78;;;2.30;;
24008;SDS011;12217;50.792;4.372;2022-07-10T06:27:51;4.10;;;1.80;;
24008;SDS011;12217;50.792;4.372;2022-07-10T06:30:17;3.58;;;1.80;;
24008;SDS011;12217;50.792;4.372;2022-07-10T06:32:43;4.70;;;1.85;;
24008;SDS011;12217;50.792;4.372;2022-07-10T06:35:09;4.07;;;2.00;;
24008;SDS011;12217;50.792;4.372;2022-07-10T06:37:35;6.25;;;1.90;;
24008;SDS011;12217;50.792;4.372;2022-07-10T06:40:01;4.43;;;1.92;;
24008;SDS011;12217;50.792;4.372;2022-07-10T06:42:26;7.20;;;1.75;;
24008;SDS011;12217;50.792;4.372;2022-07-10T06:44:52;6.13;;;1.73;;
24008;SDS011;12217;50.792;4.372;2022-07-10T06:47:18;5.97;;;1.85;;
24008;SDS011;12217;50.792;4.372;2022-07-10T06:50:03;3.17;;;1.40;;
24008;SDS011;12217;50.792;4.372;2022-07-10T06:52:30;4.95;;;1.80;;
24008;SDS011;12217;50.792;4.372;2022-07-10T06:54:58;3.13;;;1.75;;
24008;SDS011;12217;50.792;4.372;2022-07-10T06:57:23;3.35;;;1.40;;
24008;SDS011;12217;50.792;4.372;2022-07-10T06:59:49;4.93;;;1.67;;
24008;SDS011;12217;50.792;4.372;2022-07-10T07:02:16;3.95;;;1.80;;
24008;SDS011;12217;50.792;4.372;2022-07-10T07:04:42;5.85;;;1.80;;
24008;SDS011;12217;50.792;4.372;2022-07-10T07:07:09;5.90;;;1.67;;
24008;SDS011;12217;50.792;4.372;2022-07-10T07:09:35;7.30;;;2.05;;
24008;SDS011;12217;50.792;4.372;2022-07-10T07:12:00;6.35;;;2.00;;
24008;SDS011;12217;50.792;4.372;2022-07-10T07:14:26;7.13;;;1.90;;
24008;SDS011;12217;50.792;4.372;2022-07-10T07:16:51;4.45;;;1.70;;
24008;SDS011;12217;50.792;4.372;2022-07-10T07:19:31;6.85;;;2.20;;
24008;SDS011;12217;50.792;4.372;2022-07-10T07:22:30;5.75;;;1.83;;
24008;SDS011;12217;50.792;4.372;2022-07-10T07:25:15;3.35;;;1.40;;
24008;SDS011;12217;50.792;4.372;2022-07-10T07:27:40;4.72;;;1.70;;
24008;SDS011;12217;50.792;4.372;2022-07-10T07:30:07;5.68;;;1.50;;
24008;SDS011;12217;50.792;4.372;2022-07-10T07:32:35;3.97;;;1.50;;
24008;SDS011;12217;50.792;4.372;2022-07-10T07:35:02;6.28;;;1.70;;
24008;SDS011;12217;50.792;4.372;2022-07-10T07:37:38;4.95;;;1.73;;
24008;SDS011;12217;50.792;4.372;2022-07-10T07:40:04;5.53;;;1.75;;
24008;SDS011;12217;50.792;4.372;2022-07-10T07:42:31;3.88;;;1.85;;
24008;SDS011;12217;50.792;4.372;2022-07-10T07:44:57;3.53;;;1.63;;
24008;SDS011;12217;50.792;4.372;2022-07-10T07:47:23;4.75;;;1.83;;
24008;SDS011;12217;50.792;4.372;2022-07-10T07:49:48;4.40;;;1.88;;
24008;SDS011;12217;50.792;4.372;2022-07-10T07:52:14;3.70;;;1.77;;
24008;SDS011;12217;50.792;4.372;2022-07-10T07:54:40;5.10;;;1.98;;
24008;SDS011;12217;50.792;4.372;2022-07-10T07:57:05;5.63;;;1.90;;
24008;SDS011;12217;50.792;4.372;2022-07-10T07:59:31;7.40;;;1.92;;
24008;SDS011;12217;50.792;4.372;2022-07-10T08:01:57;3.33;;;1.80;;
24008;SDS011;12217;50.792;4.372;2022-07-10T08:04:22;5.25;;;1.77;;
24008;SDS011;12217;50.792;4.372;2022-07-10T08:06:48;3.90;;;1.83;;
24008;SDS011;12217;50.792;4.372;2022-07-10T08:09:17;5.72;;;2.20;;
24008;SDS011;12217;50.792;4.372;2022-07-10T08:11:43;5.82;;;1.98;;
24008;SDS011;12217;50.792;4.372;2022-07-10T08:14:09;7.47;;;1.95;;
24008;SDS011;12217;50.792;4.372;2022-07-10T08:16:34;3.70;;;1.77;;
24008;SDS011;12217;50.792;4.372;2022-07-10T08:19:00;3.97;;;2.10;;
24008;SDS011;12217;50.792;4.372;2022-07-10T08:21:26;5.13;;;2.08;;
24008;SDS011;12217;50.792;4.372;2022-07-10T08:23:51;5.38;;;1.90;;
24008;SDS011;12217;50.792;4.372;2022-07-10T08:26:18;5.72;;;1.80;;
24008;SDS011;12217;50.792;4.372;2022-07-10T08:28:44;5.25;;;1.83;;
24008;SDS011;12217;50.792;4.372;2022-07-10T08:31:10;3.70;;;1.70;;
24008;SDS011;12217;50.792;4.372;2022-07-10T08:33:35;4.90;;;2.10;;
24008;SDS011;12217;50.792;4.372;2022-07-10T08:36:01;4.82;;;2.25;;
24008;SDS011;12217;50.792;4.372;2022-07-10T08:38:26;5.20;;;2.25;;
24008;SDS011;12217;50.792;4.372;2022-07-10T08:40:53;6.35;;;2.20;;
24008;SDS011;12217;50.792;4.372;2022-07-10T08:43:23;7.25;;;2.10;;
24008;SDS011;12217;50.792;4.372;2022-07-10T08:45:50;6.72;;;2.45;;
24008;SDS011;12217;50.792;4.372;2022-07-10T08:48:19;6.88;;;2.47;;
24008;SDS011;12217;50.792;4.372;2022-07-10T08:50:47;8.25;;;2.00;;
24008;SDS011;12217;50.792;4.372;2022-07-10T08:53:18;4.85;;;2.10;;
24008;SDS011;12217;50.792;4.372;2022-07-10T08:55:49;4.50;;;2.22;;
24008;SDS011;12217;50.792;4.372;2022-07-10T08:58:14;6.88;;;1.90;;
24008;SDS011;12217;50.792;4.372;2022-07-10T09:00:41;6.25;;;2.47;;
24008;SDS011;12217;50.792;4.372;2022-07-10T09:03:07;4.60;;;1.67;;
24008;SDS011;12217;50.792;4.372;2022-07-10T09:05:33;5.80;;;2.15;;
24008;SDS011;12217;50.792;4.372;2022-07-10T09:08:00;3.88;;;1.98;;
24008;SDS011;12217;50.792;4.372;2022-07-10T09:10:26;5.20;;;2.22;;
24008;SDS011;12217;50.792;4.372;2022-07-10T09:12:53;4.57;;;1.80;;
24008;SDS011;12217;50.792;4.372;2022-07-10T09:15:27;3.90;;;2.00;;
24008;SDS011;12217;50.792;4.372;2022-07-10T09:18:00;4.57;;;2.22;;
24008;SDS011;12217;50.792;4.372;2022-07-10T09:22:59;4.78;;;2.53;;
24008;SDS011;12217;50.792;4.372;2022-07-10T09:25:35;6.68;;;2.22;;
24008;SDS011;12217;50.792;4.372;2022-07-10T09:28:01;7.05;;;1.95;;
24008;SDS011;12217;50.792;4.372;2022-07-10T09:30:34;4.60;;;2.10;;
24008;SDS011;12217;50.792;4.372;2022-07-10T09:33:22;5.38;;;2.50;;
24008;SDS011;12217;50.792;4.372;2022-07-10T09:35:59;3.03;;;1.90;;
24008;SDS011;12217;50.792;4.372;2022-07-10T09:41:15;5.40;;;2.33;;
24008;SDS011;12217;50.792;4.372;2022-07-10T09:43:49;4.88;;;2.00;;
24008;SDS011;12217;50.792;4.372;2022-07-10T09:46:20;5.28;;;1.90;;
24008;SDS011;12217;50.792;4.372;2022-07-10T09:48:47;6.32;;;3.20;;
24008;SDS011;12217;50.792;4.372;2022-07-10T09:51:13;5.68;;;2.60;;
24008;SDS011;12217;50.792;4.372;2022-07-10T09:53:42;5.28;;;1.90;;
24008;SDS011;12217;50.792;4.372;2022-07-10T09:56:10;4.68;;;2.17;;
24008;SDS011;12217;50.792;4.372;2022-07-10T09:58:37;3.28;;;1.73;;
24008;SDS011;12217;50.792;4.372;2022-07-10T10:01:04;4.85;;;1.85;;
24008;SDS011;12217;50.792;4.372;2022-07-10T10:03:32;3.75;;;1.70;;
24008;SDS011;12217;50.792;4.372;2022-07-10T10:06:03;4.45;;;1.88;;
24008;SDS011;12217;50.792;4.372;2022-07-10T10:11:21;5.35;;;2.00;;
24008;SDS011;12217;50.792;4.372;2022-07-10T10:13:50;4.68;;;1.88;;
24008;SDS011;12217;50.792;4.372;2022-07-10T10:16:18;4.07;;;2.10;;
24008;SDS011;12217;50.792;4.372;2022-07-10T10:18:44;5.78;;;2.20;;
24008;SDS011;12217;50.792;4.372;2022-07-10T10:21:30;6.40;;;2.70;;
24008;SDS011;12217;50.792;4.372;2022-07-10T10:23:57;4.43;;;2.05;;
24008;SDS011;12217;50.792;4.372;2022-07-10T10:26:25;3.42;;;2.15;;
24008;SDS011;12217;50.792;4.372;2022-07-10T10:28:51;4.55;;;2.10;;
24008;SDS011;12217;50.792;4.372;2022-07-10T10:31:18;7.32;;;2.50;;
24008;SDS011;12217;50.792;4.372;2022-07-10T10:33:46;3.50;;;2.17;;
24008;SDS011;12217;50.792;4.372;2022-07-10T10:36:14;5.47;;;2.03;;
24008;SDS011;12217;50.792;4.372;2022-07-10T10:39:00;3.50;;;2.17;;
24008;SDS011;12217;50.792;4.372;2022-07-10T10:41:42;4.80;;;2.45;;
24008;SDS011;12217;50.792;4.372;2022-07-10T10:49:15;6.07;;;2.60;;
24008;SDS011;12217;50.792;4.372;2022-07-10T10:51:57;3.47;;;2.47;;
24008;SDS011;12217;50.792;4.372;2022-07-10T10:54:28;4.53;;;2.40;;
24008;SDS011;12217;50.792;4.372;2022-07-10T10:57:17;4.25;;;2.55;;
24008;SDS011;12217;50.792;4.372;2022-07-10T10:59:46;3.33;;;2.30;;
24008;SDS011;12217;50.792;4.372;2022-07-10T11:02:26;4.57;;;2.53;;
24008;SDS011;12217;50.792;4.372;2022-07-10T11:10:30;4.55;;;2.65;;
24008;SDS011;12217;50.792;4.372;2022-07-10T11:13:07;4.60;;;2.80;;
24008;SDS011;12217;50.792;4.372;2022-07-10T11:15:35;5.20;;;2.85;;
24008;SDS011;12217;50.792;4.372;2022-07-10T11:18:04;4.30;;;2.47;;
24008;SDS011;12217;50.792;4.372;2022-07-10T11:25:42;5.55;;;2.60;;
24008;SDS011;12217;50.792;4.372;2022-07-10T11:28:25;3.20;;;2.90;;
24008;SDS011;12217;50.792;4.372;2022-07-10T11:31:03;5.53;;;3.17;;
24008;SDS011;12217;50.792;4.372;2022-07-10T11:33:29;4.82;;;2.88;;
24008;SDS011;12217;50.792;4.372;2022-07-10T11:36:09;3.90;;;2.30;;
24008;SDS011;12217;50.792;4.372;2022-07-10T11:38:38;5.57;;;2.90;;
24008;SDS011;12217;50.792;4.372;2022-07-10T11:41:04;5.53;;;2.60;;
24008;SDS011;12217;50.792;4.372;2022-07-10T11:43:36;5.22;;;2.72;;
24008;SDS011;12217;50.792;4.372;2022-07-10T11:46:11;3.63;;;2.25;;
24008;SDS011;12217;50.792;4.372;2022-07-10T11:48:39;4.97;;;2.47;;
24008;SDS011;12217;50.792;4.372;2022-07-10T11:53:58;5.95;;;2.95;;
24008;SDS011;12217;50.792;4.372;2022-07-10T11:56:24;4.00;;;2.95;;
24008;SDS011;12217;50.792;4.372;2022-07-10T11:58:57;3.38;;;1.98;;
24008;SDS011;12217;50.792;4.372;2022-07-10T12:01:25;3.28;;;2.35;;
24008;SDS011;12217;50.792;4.372;2022-07-10T12:03:54;5.32;;;2.55;;
24008;SDS011;12217;50.792;4.372;2022-07-10T12:06:21;3.05;;;2.05;;
24008;SDS011;12217;50.792;4.372;2022-07-10T12:08:48;3.38;;;2.55;;
24008;SDS011;12217;50.792;4.372;2022-07-10T12:11:14;6.60;;;2.90;;
24008;SDS011;12217;50.792;4.372;2022-07-10T12:13:41;4.85;;;2.88;;
24008;SDS011;12217;50.792;4.372;2022-07-10T12:16:08;5.18;;;2.72;;
24008;SDS011;12217;50.792;4.372;2022-07-10T12:18:33;2.92;;;2.38;;
24008;SDS011;12217;50.792;4.372;2022-07-10T12:20:59;6.85;;;3.53;;
24008;SDS011;12217;50.792;4.372;2022-07-10T12:23:26;3.05;;;2.30;;
24008;SDS011;12217;50.792;4.372;2022-07-10T12:25:53;5.00;;;2.30;;
24008;SDS011;12217;50.792;4.372;2022-07-10T12:28:21;6.78;;;2.50;;
24008;SDS011;12217;50.792;4.372;2022-07-10T12:30:47;3.85;;;2.50;;
24008;SDS011;12217;50.792;4.372;2022-07-10T12:33:22;4.10;;;2.15;;
24008;SDS011;12217;50.792;4.372;2022-07-10T12:35:53;3.97;;;2.28;;
24008;SDS011;12217;50.792;4.372;2022-07-10T12:43:33;3.22;;;2.15;;
24008;SDS011;12217;50.792;4.372;2022-07-10T12:46:09;2.38;;;1.98;;
24008;SDS011;12217;50.792;4.372;2022-07-10T12:48:36;3.90;;;1.77;;
24008;SDS011;12217;50.792;4.372;2022-07-10T12:51:22;3.55;;;1.80;;
24008;SDS011;12217;50.792;4.372;2022-07-10T12:53:49;3.53;;;1.70;;
24008;SDS011;12217;50.792;4.372;2022-07-10T12:56:28;2.60;;;1.48;;
24008;SDS011;12217;50.792;4.372;2022-07-10T12:58:59;3.25;;;1.98;;
24008;SDS011;12217;50.792;4.372;2022-07-10T13:01:26;5.40;;;2.33;;
24008;SDS011;12217;50.792;4.372;2022-07-10T13:03:57;4.05;;;1.95;;
24008;SDS011;12217;50.792;4.372;2022-07-10T13:06:31;3.67;;;1.83;;
24008;SDS011;12217;50.792;4.372;2022-07-10T13:08:57;3.80;;;1.60;;
24008;SDS011;12217;50.792;4.372;2022-07-10T13:11:23;3.10;;;1.60;;
24008;SDS011;12217;50.792;4.372;2022-07-10T13:13:49;3.40;;;1.80;;
24008;SDS011;12217;50.792;4.372;2022-07-10T13:16:16;4.10;;;2.05;;
24008;SDS011;12217;50.792;4.372;2022-07-10T13:18:42;4.05;;;1.63;;
24008;SDS011;12217;50.792;4.372;2022-07-10T13:21:11;4.10;;;1.55;;
24008;SDS011;12217;50.792;4.372;2022-07-10T13:23:37;2.03;;;1.52;;
24008;SDS011;12217;50.792;4.372;2022-07-10T13:26:03;3.15;;;2.00;;
24008;SDS011;12217;50.792;4.372;2022-07-10T13:28:31;4.05;;;2.60;;
24008;SDS011;12217;50.792;4.372;2022-07-10T13:30:59;4.18;;;2.22;;
24008;SDS011;12217;50.792;4.372;2022-07-10T13:33:25;2.33;;;1.55;;
24008;SDS011;12217;50.792;4.372;2022-07-10T13:35:52;2.63;;;1.50;;
24008;SDS011;12217;50.792;4.372;2022-07-10T13:38:19;2.05;;;1.42;;
24008;SDS011;12217;50.792;4.372;2022-07-10T13:40:45;2.58;;;1.52;;
24008;SDS011;12217;50.792;4.372;2022-07-10T13:43:12;4.20;;;2.05;;
24008;SDS011;12217;50.792;4.372;2022-07-10T13:45:38;3.75;;;2.15;;
24008;SDS011;12217;50.792;4.372;2022-07-10T13:48:14;3.85;;;2.47;;
24008;SDS011;12217;50.792;4.372;2022-07-10T13:50:41;3.80;;;1.80;;
24008;SDS011;12217;50.792;4.372;2022-07-10T13:53:08;3.42;;;1.80;;
24008;SDS011;12217;50.792;4.372;2022-07-10T13:55:34;2.22;;;1.67;;
24008;SDS011;12217;50.792;4.372;2022-07-10T13:58:00;4.60;;;1.50;;
24008;SDS011;12217;50.792;4.372;2022-07-10T14:00:26;2.45;;;1.45;;
24008;SDS011;12217;50.792;4.372;2022-07-10T14:02:52;3.03;;;1.42;;
24008;SDS011;12217;50.792;4.372;2022-07-10T14:05:21;2.72;;;1.40;;
24008;SDS011;12217;50.792;4.372;2022-07-10T14:07:47;4.80;;;1.83;;
24008;SDS011;12217;50.792;4.372;2022-07-10T14:10:12;2.00;;;1.50;;
24008;SDS011;12217;50.792;4.372;2022-07-10T14:12:38;3.03;;;1.75;;
24008;SDS011;12217;50.792;4.372;2022-07-10T14:15:04;3.10;;;1.67;;
24008;SDS011;12217;50.792;4.372;2022-07-10T14:17:30;3.30;;;1.48;;
24008;SDS011;12217;50.792;4.372;2022-07-10T14:19:55;4.45;;;1.80;;
24008;SDS011;12217;50.792;4.372;2022-07-10T14:22:21;2.83;;;1.48;;
24008;SDS011;12217;50.792;4.372;2022-07-10T14:24:47;2.85;;;1.20;;
24008;SDS011;12217;50.792;4.372;2022-07-10T14:27:13;2.92;;;1.77;;
24008;SDS011;12217;50.792;4.372;2022-07-10T14:29:39;4.50;;;1.60;;
24008;SDS011;12217;50.792;4.372;2022-07-10T14:32:05;3.45;;;1.50;;
24008;SDS011;12217;50.792;4.372;2022-07-10T14:34:31;2.35;;;1.30;;
24008;SDS011;12217;50.792;4.372;2022-07-10T14:36:56;3.45;;;1.60;;
24008;SDS011;12217;50.792;4.372;2022-07-10T14:39:23;2.58;;;1.35;;
24008;SDS011;12217;50.792;4.372;2022-07-10T14:41:48;1.85;;;1.38;;
24008;SDS011;12217;50.792;4.372;2022-07-10T14:44:14;2.15;;;1.30;;
24008;SDS011;12217;50.792;4.372;2022-07-10T14:46:40;3.00;;;1.30;;
24008;SDS011;12217;50.792;4.372;2022-07-10T14:49:05;4.38;;;1.15;;
24008;SDS011;12217;50.792;4.372;2022-07-10T14:51:31;3.45;;;1.20;;
24008;SDS011;12217;50.792;4.372;2022-07-10T14:53:56;3.85;;;1.50;;
24008;SDS011;12217;50.792;4.372;2022-07-10T14:56:22;3.03;;;1.90;;
24008;SDS011;12217;50.792;4.372;2022-07-10T14:58:48;6.35;;;1.30;;
24008;SDS011;12217;50.792;4.372;2022-07-10T15:01:14;2.20;;;1.13;;
24008;SDS011;12217;50.792;4.372;2022-07-10T15:03:40;2.63;;;1.23;;
24008;SDS011;12217;50.792;4.372;2022-07-10T15:06:06;2.97;;;1.52;;
24008;SDS011;12217;50.792;4.372;2022-07-10T15:08:32;4.40;;;1.30;;
24008;SDS011;12217;50.792;4.372;2022-07-10T15:10:58;2.60;;;1.20;;
24008;SDS011;12217;50.792;4.372;2022-07-10T15:13:25;2.70;;;1.10;;
24008;SDS011;12217;50.792;4.372;2022-07-10T15:15:51;2.10;;;1.20;;
24008;SDS011;12217;50.792;4.372;2022-07-10T15:18:17;3.00;;;1.30;;
24008;SDS011;12217;50.792;4.372;2022-07-10T15:20:43;3.10;;;1.35;;